EDDH/HAM METAR and TAF weather

Enter ICAO airport designator
Station Type Date Time Source
EDDH METAR 2021/07/30 08:20 UTC NOAA

EDDH 300820Z 22015KT 9999 FEW028 20/12 Q1007 NOSIG


Station Type Date Time Source
EDDH Decoded METAR 2021/07/30 08:20 UTC NOAA

Hamburg-Fuhlsbuettel, Germany (EDDH) 53-38N 010-00E 15M
Jul 30, 2021 - 04:20 AM EDT / 2021.07.30 0820 UTC
Wind: from the SW (220 degrees) at 17 MPH (15 KT):0
Visibility: greater than 7 mile(s):0
Sky conditions: mostly clear
Temperature: 68 F (20 C)
Dew Point: 53 F (12 C)
Relative Humidity: 59%
Pressure (altimeter): 29.74 in. Hg (1007 hPa)
ob: EDDH 300820Z 22015KT 9999 FEW028 20/12 Q1007 NOSIG
cycle: 8

Station Type Date Time Source
EDDH TAF 2021/07/30 06:27 UTC NOAA

TAF EDDH 300500Z 3006/3112 23011KT CAVOK PROB40
TEMPO 3009/3013 24015G25KT
BECMG 3016/3019 17005KT
BECMG 3104/3106 21012KT
BECMG 3106/3109 21015G25KT
TEMPO 3109/3112 23020G30KT SHRA BKN020TCU PROB30
TEMPO 3110/3112 25020G40KT 3500 TSRA BKN015CB

Example: see airport list